sensor_id;sensor_type;location;lat;lon;timestamp;P1;durP1;ratioP1;P2;durP2;ratioP2
57395;SDS011;43222;52.912;6.940;2023-08-01T00:02:10;11.98;;;6.13;;
57395;SDS011;43222;52.912;6.940;2023-08-01T00:04:36;12.60;;;6.35;;
57395;SDS011;43222;52.912;6.940;2023-08-01T00:07:02;11.68;;;5.50;;
57395;SDS011;43222;52.912;6.940;2023-08-01T00:09:28;9.35;;;5.63;;
57395;SDS011;43222;52.912;6.940;2023-08-01T00:11:54;10.75;;;5.53;;
57395;SDS011;43222;52.912;6.940;2023-08-01T00:14:20;12.65;;;5.57;;
57395;SDS011;43222;52.912;6.940;2023-08-01T00:16:49;11.20;;;4.93;;
57395;SDS011;43222;52.912;6.940;2023-08-01T00:19:15;11.82;;;5.70;;
57395;SDS011;43222;52.912;6.940;2023-08-01T00:21:41;12.23;;;5.70;;
57395;SDS011;43222;52.912;6.940;2023-08-01T00:24:08;10.32;;;5.70;;
57395;SDS011;43222;52.912;6.940;2023-08-01T00:26:34;13.10;;;6.60;;
57395;SDS011;43222;52.912;6.940;2023-08-01T00:29:00;12.98;;;6.47;;
57395;SDS011;43222;52.912;6.940;2023-08-01T00:31:26;14.95;;;7.18;;
57395;SDS011;43222;52.912;6.940;2023-08-01T00:33:52;16.95;;;7.68;;
57395;SDS011;43222;52.912;6.940;2023-08-01T00:36:18;13.32;;;7.70;;
57395;SDS011;43222;52.912;6.940;2023-08-01T00:38:45;17.50;;;7.90;;
57395;SDS011;43222;52.912;6.940;2023-08-01T00:41:11;13.48;;;7.18;;
57395;SDS011;43222;52.912;6.940;2023-08-01T00:43:37;14.68;;;8.48;;
57395;SDS011;43222;52.912;6.940;2023-08-01T00:46:05;13.98;;;7.88;;
57395;SDS011;43222;52.912;6.940;2023-08-01T00:48:31;17.60;;;8.75;;
57395;SDS011;43222;52.912;6.940;2023-08-01T00:50:58;13.70;;;8.45;;
57395;SDS011;43222;52.912;6.940;2023-08-01T00:53:24;13.93;;;8.57;;
57395;SDS011;43222;52.912;6.940;2023-08-01T00:55:51;18.75;;;9.00;;
57395;SDS011;43222;52.912;6.940;2023-08-01T00:58:20;12.35;;;8.32;;
57395;SDS011;43222;52.912;6.940;2023-08-01T01:00:46;17.52;;;10.55;;
57395;SDS011;43222;52.912;6.940;2023-08-01T01:03:13;17.48;;;9.20;;
57395;SDS011;43222;52.912;6.940;2023-08-01T01:05:48;15.73;;;8.80;;
57395;SDS011;43222;52.912;6.940;2023-08-01T01:08:15;16.60;;;9.27;;
57395;SDS011;43222;52.912;6.940;2023-08-01T01:10:41;17.17;;;8.63;;
57395;SDS011;43222;52.912;6.940;2023-08-01T01:13:07;15.88;;;7.90;;
57395;SDS011;43222;52.912;6.940;2023-08-01T01:15:33;16.77;;;9.30;;
57395;SDS011;43222;52.912;6.940;2023-08-01T01:17:59;12.50;;;8.48;;
57395;SDS011;43222;52.912;6.940;2023-08-01T01:20:25;16.98;;;9.23;;
57395;SDS011;43222;52.912;6.940;2023-08-01T01:22:52;16.63;;;9.68;;
57395;SDS011;43222;52.912;6.940;2023-08-01T01:25:20;14.88;;;9.43;;
57395;SDS011;43222;52.912;6.940;2023-08-01T01:27:48;17.23;;;9.27;;
57395;SDS011;43222;52.912;6.940;2023-08-01T01:30:14;15.40;;;9.82;;
57395;SDS011;43222;52.912;6.940;2023-08-01T01:32:41;16.23;;;9.05;;
57395;SDS011;43222;52.912;6.940;2023-08-01T01:35:07;17.83;;;10.48;;
57395;SDS011;43222;52.912;6.940;2023-08-01T01:37:33;13.30;;;8.98;;
57395;SDS011;43222;52.912;6.940;2023-08-01T01:39:59;17.10;;;10.35;;
57395;SDS011;43222;52.912;6.940;2023-08-01T01:42:25;16.38;;;9.23;;
57395;SDS011;43222;52.912;6.940;2023-08-01T01:44:51;19.05;;;10.18;;
57395;SDS011;43222;52.912;6.940;2023-08-01T01:47:18;17.98;;;9.45;;
57395;SDS011;43222;52.912;6.940;2023-08-01T01:49:44;18.55;;;9.02;;
57395;SDS011;43222;52.912;6.940;2023-08-01T01:52:10;19.02;;;8.18;;
57395;SDS011;43222;52.912;6.940;2023-08-01T01:54:36;16.27;;;8.18;;
57395;SDS011;43222;52.912;6.940;2023-08-01T01:57:02;16.75;;;9.15;;
57395;SDS011;43222;52.912;6.940;2023-08-01T01:59:28;13.88;;;8.75;;
57395;SDS011;43222;52.912;6.940;2023-08-01T02:01:54;15.02;;;8.82;;
57395;SDS011;43222;52.912;6.940;2023-08-01T02:04:20;15.52;;;8.45;;
57395;SDS011;43222;52.912;6.940;2023-08-01T02:06:46;15.05;;;8.38;;
57395;SDS011;43222;52.912;6.940;2023-08-01T02:09:13;17.48;;;9.15;;
57395;SDS011;43222;52.912;6.940;2023-08-01T02:11:39;16.92;;;9.13;;
57395;SDS011;43222;52.912;6.940;2023-08-01T02:14:05;19.95;;;8.18;;
57395;SDS011;43222;52.912;6.940;2023-08-01T02:16:31;19.23;;;9.55;;
57395;SDS011;43222;52.912;6.940;2023-08-01T02:18:57;17.33;;;9.32;;
57395;SDS011;43222;52.912;6.940;2023-08-01T02:21:23;16.63;;;8.75;;
57395;SDS011;43222;52.912;6.940;2023-08-01T02:23:49;13.45;;;8.50;;
57395;SDS011;43222;52.912;6.940;2023-08-01T02:26:15;16.98;;;9.40;;
57395;SDS011;43222;52.912;6.940;2023-08-01T02:28:41;12.60;;;8.75;;
57395;SDS011;43222;52.912;6.940;2023-08-01T02:31:08;16.25;;;8.80;;
57395;SDS011;43222;52.912;6.940;2023-08-01T02:33:34;20.98;;;8.50;;
57395;SDS011;43222;52.912;6.940;2023-08-01T02:36:00;16.00;;;8.30;;
57395;SDS011;43222;52.912;6.940;2023-08-01T02:38:26;14.60;;;8.95;;
57395;SDS011;43222;52.912;6.940;2023-08-01T02:40:52;17.50;;;8.82;;
57395;SDS011;43222;52.912;6.940;2023-08-01T02:43:18;20.05;;;9.57;;
57395;SDS011;43222;52.912;6.940;2023-08-01T02:45:44;15.18;;;9.55;;
57395;SDS011;43222;52.912;6.940;2023-08-01T02:48:11;17.33;;;8.52;;
57395;SDS011;43222;52.912;6.940;2023-08-01T02:50:37;15.23;;;9.00;;
57395;SDS011;43222;52.912;6.940;2023-08-01T02:53:04;16.98;;;8.57;;
57395;SDS011;43222;52.912;6.940;2023-08-01T02:55:30;15.27;;;7.63;;
57395;SDS011;43222;52.912;6.940;2023-08-01T02:57:56;16.88;;;9.10;;
57395;SDS011;43222;52.912;6.940;2023-08-01T03:00:22;14.85;;;7.13;;
57395;SDS011;43222;52.912;6.940;2023-08-01T03:02:49;13.55;;;7.30;;
57395;SDS011;43222;52.912;6.940;2023-08-01T03:05:15;13.32;;;7.05;;
57395;SDS011;43222;52.912;6.940;2023-08-01T03:07:42;13.65;;;6.55;;
57395;SDS011;43222;52.912;6.940;2023-08-01T03:10:08;16.67;;;7.15;;
57395;SDS011;43222;52.912;6.940;2023-08-01T03:12:36;16.42;;;7.68;;
57395;SDS011;43222;52.912;6.940;2023-08-01T03:15:05;14.90;;;7.85;;
57395;SDS011;43222;52.912;6.940;2023-08-01T03:17:34;14.38;;;7.18;;
57395;SDS011;43222;52.912;6.940;2023-08-01T03:20:00;15.43;;;8.48;;
57395;SDS011;43222;52.912;6.940;2023-08-01T03:22:26;15.00;;;8.07;;
57395;SDS011;43222;52.912;6.940;2023-08-01T03:24:52;16.25;;;8.35;;
57395;SDS011;43222;52.912;6.940;2023-08-01T03:27:18;18.33;;;8.45;;
57395;SDS011;43222;52.912;6.940;2023-08-01T03:29:44;13.23;;;7.75;;
57395;SDS011;43222;52.912;6.940;2023-08-01T03:32:10;15.88;;;8.90;;
57395;SDS011;43222;52.912;6.940;2023-08-01T03:34:36;14.20;;;8.00;;
57395;SDS011;43222;52.912;6.940;2023-08-01T03:37:04;21.02;;;9.55;;
57395;SDS011;43222;52.912;6.940;2023-08-01T03:39:30;19.23;;;8.60;;
57395;SDS011;43222;52.912;6.940;2023-08-01T03:41:56;18.77;;;8.80;;
57395;SDS011;43222;52.912;6.940;2023-08-01T03:44:22;20.13;;;9.20;;
57395;SDS011;43222;52.912;6.940;2023-08-01T03:46:48;16.65;;;8.40;;
57395;SDS011;43222;52.912;6.940;2023-08-01T03:49:14;14.20;;;7.15;;
57395;SDS011;43222;52.912;6.940;2023-08-01T03:51:40;18.10;;;8.25;;
57395;SDS011;43222;52.912;6.940;2023-08-01T03:54:07;16.52;;;6.93;;
57395;SDS011;43222;52.912;6.940;2023-08-01T03:56:33;17.25;;;8.02;;
57395;SDS011;43222;52.912;6.940;2023-08-01T03:58:59;15.95;;;7.57;;
57395;SDS011;43222;52.912;6.940;2023-08-01T04:01:25;17.80;;;7.70;;
57395;SDS011;43222;52.912;6.940;2023-08-01T04:03:51;17.90;;;8.10;;
57395;SDS011;43222;52.912;6.940;2023-08-01T04:06:17;14.10;;;7.50;;
57395;SDS011;43222;52.912;6.940;2023-08-01T04:08:43;16.30;;;7.63;;
57395;SDS011;43222;52.912;6.940;2023-08-01T04:11:09;13.15;;;5.65;;
57395;SDS011;43222;52.912;6.940;2023-08-01T04:13:36;10.13;;;4.70;;
57395;SDS011;43222;52.912;6.940;2023-08-01T04:16:02;9.88;;;4.25;;
57395;SDS011;43222;52.912;6.940;2023-08-01T04:18:28;12.35;;;4.38;;
57395;SDS011;43222;52.912;6.940;2023-08-01T04:20:54;11.18;;;4.35;;
57395;SDS011;43222;52.912;6.940;2023-08-01T04:23:20;7.90;;;3.10;;
57395;SDS011;43222;52.912;6.940;2023-08-01T04:25:47;9.60;;;3.00;;
57395;SDS011;43222;52.912;6.940;2023-08-01T04:28:13;9.75;;;3.05;;
57395;SDS011;43222;52.912;6.940;2023-08-01T04:30:39;6.60;;;2.60;;
57395;SDS011;43222;52.912;6.940;2023-08-01T04:33:05;7.32;;;2.88;;
57395;SDS011;43222;52.912;6.940;2023-08-01T04:35:31;10.20;;;2.67;;
57395;SDS011;43222;52.912;6.940;2023-08-01T04:37:57;9.32;;;2.58;;
57395;SDS011;43222;52.912;6.940;2023-08-01T04:40:23;9.68;;;2.60;;
57395;SDS011;43222;52.912;6.940;2023-08-01T04:42:49;7.35;;;2.38;;
57395;SDS011;43222;52.912;6.940;2023-08-01T04:45:15;6.07;;;1.92;;
57395;SDS011;43222;52.912;6.940;2023-08-01T04:47:41;8.80;;;2.47;;
57395;SDS011;43222;52.912;6.940;2023-08-01T04:50:07;8.80;;;2.40;;
57395;SDS011;43222;52.912;6.940;2023-08-01T04:52:34;7.82;;;2.10;;
57395;SDS011;43222;52.912;6.940;2023-08-01T04:55:00;10.55;;;2.10;;
57395;SDS011;43222;52.912;6.940;2023-08-01T04:57:26;8.30;;;1.90;;
57395;SDS011;43222;52.912;6.940;2023-08-01T04:59:52;5.25;;;1.80;;
57395;SDS011;43222;52.912;6.940;2023-08-01T05:02:18;6.03;;;2.17;;
57395;SDS011;43222;52.912;6.940;2023-08-01T05:04:44;5.82;;;1.85;;
57395;SDS011;43222;52.912;6.940;2023-08-01T05:07:10;7.05;;;1.75;;
57395;SDS011;43222;52.912;6.940;2023-08-01T05:09:37;6.55;;;1.67;;
57395;SDS011;43222;52.912;6.940;2023-08-01T05:12:03;7.90;;;2.05;;
57395;SDS011;43222;52.912;6.940;2023-08-01T05:14:29;6.05;;;1.77;;
57395;SDS011;43222;52.912;6.940;2023-08-01T05:16:55;5.63;;;1.70;;
57395;SDS011;43222;52.912;6.940;2023-08-01T05:19:21;7.07;;;1.92;;
57395;SDS011;43222;52.912;6.940;2023-08-01T05:21:47;5.63;;;1.52;;
57395;SDS011;43222;52.912;6.940;2023-08-01T05:24:14;6.38;;;1.92;;
57395;SDS011;43222;52.912;6.940;2023-08-01T05:26:40;6.32;;;1.98;;
57395;SDS011;43222;52.912;6.940;2023-08-01T05:29:06;8.70;;;2.00;;
57395;SDS011;43222;52.912;6.940;2023-08-01T05:31:32;7.18;;;1.88;;
57395;SDS011;43222;52.912;6.940;2023-08-01T05:33:58;6.10;;;1.67;;
57395;SDS011;43222;52.912;6.940;2023-08-01T05:36:24;6.45;;;2.00;;
57395;SDS011;43222;52.912;6.940;2023-08-01T05:38:50;6.18;;;1.35;;
57395;SDS011;43222;52.912;6.940;2023-08-01T05:41:16;6.28;;;1.50;;
57395;SDS011;43222;52.912;6.940;2023-08-01T05:43:42;5.32;;;1.67;;
57395;SDS011;43222;52.912;6.940;2023-08-01T05:46:08;4.75;;;1.65;;
57395;SDS011;43222;52.912;6.940;2023-08-01T05:48:34;5.72;;;1.52;;
57395;SDS011;43222;52.912;6.940;2023-08-01T05:51:00;5.00;;;1.40;;
57395;SDS011;43222;52.912;6.940;2023-08-01T05:53:27;3.92;;;1.60;;
57395;SDS011;43222;52.912;6.940;2023-08-01T05:55:53;6.63;;;1.58;;
57395;SDS011;43222;52.912;6.940;2023-08-01T05:58:20;7.45;;;1.42;;
57395;SDS011;43222;52.912;6.940;2023-08-01T06:00:46;6.85;;;1.77;;
57395;SDS011;43222;52.912;6.940;2023-08-01T06:03:12;4.90;;;1.50;;
57395;SDS011;43222;52.912;6.940;2023-08-01T06:05:38;5.63;;;1.95;;
57395;SDS011;43222;52.912;6.940;2023-08-01T06:08:06;7.40;;;1.88;;
57395;SDS011;43222;52.912;6.940;2023-08-01T06:10:33;5.03;;;1.70;;
57395;SDS011;43222;52.912;6.940;2023-08-01T06:12:59;5.10;;;1.40;;
57395;SDS011;43222;52.912;6.940;2023-08-01T06:15:25;4.55;;;1.40;;
57395;SDS011;43222;52.912;6.940;2023-08-01T06:17:51;5.90;;;1.77;;
57395;SDS011;43222;52.912;6.940;2023-08-01T06:20:17;6.90;;;2.22;;
57395;SDS011;43222;52.912;6.940;2023-08-01T06:22:43;6.18;;;1.73;;
57395;SDS011;43222;52.912;6.940;2023-08-01T06:25:09;5.38;;;1.73;;
57395;SDS011;43222;52.912;6.940;2023-08-01T06:27:35;7.40;;;1.90;;
57395;SDS011;43222;52.912;6.940;2023-08-01T06:30:02;6.47;;;1.80;;
57395;SDS011;43222;52.912;6.940;2023-08-01T06:32:28;5.88;;;1.80;;
57395;SDS011;43222;52.912;6.940;2023-08-01T06:34:54;6.35;;;1.98;;
57395;SDS011;43222;52.912;6.940;2023-08-01T06:37:20;5.35;;;1.83;;
57395;SDS011;43222;52.912;6.940;2023-08-01T06:39:46;5.25;;;1.75;;
57395;SDS011;43222;52.912;6.940;2023-08-01T06:42:12;5.68;;;2.03;;
57395;SDS011;43222;52.912;6.940;2023-08-01T06:44:38;3.65;;;1.20;;
57395;SDS011;43222;52.912;6.940;2023-08-01T06:47:04;6.45;;;1.48;;
57395;SDS011;43222;52.912;6.940;2023-08-01T06:49:30;5.32;;;1.52;;
57395;SDS011;43222;52.912;6.940;2023-08-01T06:51:56;7.40;;;1.80;;
57395;SDS011;43222;52.912;6.940;2023-08-01T06:54:22;3.75;;;1.25;;
57395;SDS011;43222;52.912;6.940;2023-08-01T06:56:48;6.43;;;1.40;;
57395;SDS011;43222;52.912;6.940;2023-08-01T06:59:14;5.35;;;1.30;;
57395;SDS011;43222;52.912;6.940;2023-08-01T07:01:41;5.18;;;1.40;;
57395;SDS011;43222;52.912;6.940;2023-08-01T07:04:08;5.93;;;1.50;;
57395;SDS011;43222;52.912;6.940;2023-08-01T07:06:34;4.53;;;1.50;;
57395;SDS011;43222;52.912;6.940;2023-08-01T07:09:00;6.05;;;1.75;;
57395;SDS011;43222;52.912;6.940;2023-08-01T07:11:26;4.57;;;1.42;;
57395;SDS011;43222;52.912;6.940;2023-08-01T07:13:52;6.47;;;1.63;;
57395;SDS011;43222;52.912;6.940;2023-08-01T07:16:19;5.25;;;1.65;;
57395;SDS011;43222;52.912;6.940;2023-08-01T07:18:45;5.43;;;1.63;;
57395;SDS011;43222;52.912;6.940;2023-08-01T07:21:12;6.10;;;1.50;;
57395;SDS011;43222;52.912;6.940;2023-08-01T07:23:39;5.15;;;1.33;;
57395;SDS011;43222;52.912;6.940;2023-08-01T07:26:05;5.60;;;1.60;;
57395;SDS011;43222;52.912;6.940;2023-08-01T07:28:31;3.78;;;1.50;;
57395;SDS011;43222;52.912;6.940;2023-08-01T07:30:58;6.45;;;1.45;;
57395;SDS011;43222;52.912;6.940;2023-08-01T07:33:24;5.72;;;1.50;;
57395;SDS011;43222;52.912;6.940;2023-08-01T07:35:50;6.32;;;1.70;;
57395;SDS011;43222;52.912;6.940;2023-08-01T07:38:16;5.50;;;1.40;;
57395;SDS011;43222;52.912;6.940;2023-08-01T07:40:42;6.70;;;1.50;;
57395;SDS011;43222;52.912;6.940;2023-08-01T07:43:08;5.15;;;1.20;;
57395;SDS011;43222;52.912;6.940;2023-08-01T07:45:34;4.22;;;1.33;;
57395;SDS011;43222;52.912;6.940;2023-08-01T07:48:00;5.65;;;1.35;;
57395;SDS011;43222;52.912;6.940;2023-08-01T07:50:26;5.15;;;1.27;;
57395;SDS011;43222;52.912;6.940;2023-08-01T07:52:52;5.72;;;1.35;;
57395;SDS011;43222;52.912;6.940;2023-08-01T07:55:19;5.15;;;1.40;;
57395;SDS011;43222;52.912;6.940;2023-08-01T07:57:46;4.82;;;1.48;;
57395;SDS011;43222;52.912;6.940;2023-08-01T08:00:12;4.68;;;1.40;;
57395;SDS011;43222;52.912;6.940;2023-08-01T08:02:38;7.03;;;1.80;;
57395;SDS011;43222;52.912;6.940;2023-08-01T08:05:04;6.38;;;1.65;;
57395;SDS011;43222;52.912;6.940;2023-08-01T08:07:31;7.28;;;1.80;;
57395;SDS011;43222;52.912;6.940;2023-08-01T08:09:57;5.60;;;1.70;;
57395;SDS011;43222;52.912;6.940;2023-08-01T08:12:25;4.78;;;1.70;;
57395;SDS011;43222;52.912;6.940;2023-08-01T08:14:51;7.28;;;2.00;;
57395;SDS011;43222;52.912;6.940;2023-08-01T08:17:17;6.20;;;1.85;;
57395;SDS011;43222;52.912;6.940;2023-08-01T08:19:44;7.72;;;1.55;;
57395;SDS011;43222;52.912;6.940;2023-08-01T08:22:10;6.22;;;1.95;;
57395;SDS011;43222;52.912;6.940;2023-08-01T08:24:36;5.25;;;1.55;;
57395;SDS011;43222;52.912;6.940;2023-08-01T08:27:02;5.10;;;1.70;;
57395;SDS011;43222;52.912;6.940;2023-08-01T08:29:29;5.55;;;1.60;;
57395;SDS011;43222;52.912;6.940;2023-08-01T08:31:55;7.80;;;1.88;;
57395;SDS011;43222;52.912;6.940;2023-08-01T08:34:21;6.70;;;1.77;;
57395;SDS011;43222;52.912;6.940;2023-08-01T08:36:47;5.80;;;1.67;;
57395;SDS011;43222;52.912;6.940;2023-08-01T08:39:15;6.13;;;1.35;;
57395;SDS011;43222;52.912;6.940;2023-08-01T08:41:51;7.55;;;1.60;;
57395;SDS011;43222;52.912;6.940;2023-08-01T08:44:20;5.53;;;1.40;;
57395;SDS011;43222;52.912;6.940;2023-08-01T08:46:54;6.68;;;1.40;;
57395;SDS011;43222;52.912;6.940;2023-08-01T08:49:21;6.00;;;1.50;;
57395;SDS011;43222;52.912;6.940;2023-08-01T08:51:50;5.40;;;1.67;;
57395;SDS011;43222;52.912;6.940;2023-08-01T08:54:16;4.93;;;1.45;;
57395;SDS011;43222;52.912;6.940;2023-08-01T08:56:42;8.82;;;1.70;;
57395;SDS011;43222;52.912;6.940;2023-08-01T08:59:09;6.15;;;1.75;;
57395;SDS011;43222;52.912;6.940;2023-08-01T09:01:35;7.90;;;1.50;;
57395;SDS011;43222;52.912;6.940;2023-08-01T09:04:05;5.65;;;1.52;;
57395;SDS011;43222;52.912;6.940;2023-08-01T09:06:32;6.30;;;1.65;;
57395;SDS011;43222;52.912;6.940;2023-08-01T09:11:26;5.75;;;1.50;;
57395;SDS011;43222;52.912;6.940;2023-08-01T09:13:52;15.65;;;1.75;;
57395;SDS011;43222;52.912;6.940;2023-08-01T09:16:19;7.30;;;1.95;;
57395;SDS011;43222;52.912;6.940;2023-08-01T09:18:49;7.90;;;1.65;;
57395;SDS011;43222;52.912;6.940;2023-08-01T09:21:17;5.93;;;1.73;;
57395;SDS011;43222;52.912;6.940;2023-08-01T09:23:43;5.05;;;1.60;;
57395;SDS011;43222;52.912;6.940;2023-08-01T09:26:13;6.40;;;1.55;;
57395;SDS011;43222;52.912;6.940;2023-08-01T09:28:39;7.40;;;1.83;;
57395;SDS011;43222;52.912;6.940;2023-08-01T09:31:05;6.22;;;1.95;;
57395;SDS011;43222;52.912;6.940;2023-08-01T09:33:41;5.93;;;1.70;;
57395;SDS011;43222;52.912;6.940;2023-08-01T09:36:08;6.45;;;1.90;;
57395;SDS011;43222;52.912;6.940;2023-08-01T09:38:34;7.40;;;1.70;;
57395;SDS011;43222;52.912;6.940;2023-08-01T09:41:00;5.07;;;1.60;;
57395;SDS011;43222;52.912;6.940;2023-08-01T09:43:33;8.20;;;2.10;;
57395;SDS011;43222;52.912;6.940;2023-08-01T09:46:00;6.07;;;1.73;;
57395;SDS011;43222;52.912;6.940;2023-08-01T09:48:28;6.80;;;1.77;;
57395;SDS011;43222;52.912;6.940;2023-08-01T09:51:07;7.68;;;2.10;;
57395;SDS011;43222;52.912;6.940;2023-08-01T09:53:34;8.90;;;1.95;;
57395;SDS011;43222;52.912;6.940;2023-08-01T09:56:01;7.20;;;2.08;;
57395;SDS011;43222;52.912;6.940;2023-08-01T09:58:34;8.18;;;2.20;;
57395;SDS011;43222;52.912;6.940;2023-08-01T10:01:00;8.00;;;2.05;;
57395;SDS011;43222;52.912;6.940;2023-08-01T10:03:27;9.38;;;2.15;;
57395;SDS011;43222;52.912;6.940;2023-08-01T10:05:53;6.97;;;1.90;;
57395;SDS011;43222;52.912;6.940;2023-08-01T10:08:21;5.88;;;2.10;;
57395;SDS011;43222;52.912;6.940;2023-08-01T10:10:47;6.90;;;2.00;;
57395;SDS011;43222;52.912;6.940;2023-08-01T10:13:14;5.22;;;1.63;;
57395;SDS011;43222;52.912;6.940;2023-08-01T10:15:40;6.70;;;2.10;;
57395;SDS011;43222;52.912;6.940;2023-08-01T10:18:07;5.88;;;1.77;;
57395;SDS011;43222;52.912;6.940;2023-08-01T10:20:35;5.85;;;1.55;;
57395;SDS011;43222;52.912;6.940;2023-08-01T10:23:02;5.88;;;1.60;;
57395;SDS011;43222;52.912;6.940;2023-08-01T10:25:28;6.10;;;1.50;;
57395;SDS011;43222;52.912;6.940;2023-08-01T10:28:01;4.65;;;1.48;;
57395;SDS011;43222;52.912;6.940;2023-08-01T10:30:28;3.83;;;1.17;;
57395;SDS011;43222;52.912;6.940;2023-08-01T10:32:58;6.25;;;1.35;;
57395;SDS011;43222;52.912;6.940;2023-08-01T10:35:40;4.55;;;1.40;;
57395;SDS011;43222;52.912;6.940;2023-08-01T10:38:12;5.95;;;1.50;;
57395;SDS011;43222;52.912;6.940;2023-08-01T10:40:42;6.32;;;1.30;;
57395;SDS011;43222;52.912;6.940;2023-08-01T10:43:21;8.85;;;2.08;;
57395;SDS011;43222;52.912;6.940;2023-08-01T10:45:47;6.55;;;1.60;;
57395;SDS011;43222;52.912;6.940;2023-08-01T10:48:13;5.18;;;1.00;;
57395;SDS011;43222;52.912;6.940;2023-08-01T10:50:40;5.28;;;1.20;;
57395;SDS011;43222;52.912;6.940;2023-08-01T10:53:07;4.90;;;1.08;;
57395;SDS011;43222;52.912;6.940;2023-08-01T10:55:40;7.70;;;1.30;;
57395;SDS011;43222;52.912;6.940;2023-08-01T10:58:07;5.10;;;1.30;;
57395;SDS011;43222;52.912;6.940;2023-08-01T11:00:33;5.43;;;1.33;;
57395;SDS011;43222;52.912;6.940;2023-08-01T11:02:59;5.60;;;1.25;;
57395;SDS011;43222;52.912;6.940;2023-08-01T11:05:25;5.15;;;1.42;;
57395;SDS011;43222;52.912;6.940;2023-08-01T11:07:57;5.38;;;1.40;;
57395;SDS011;43222;52.912;6.940;2023-08-01T11:10:27;6.32;;;1.50;;
57395;SDS011;43222;52.912;6.940;2023-08-01T11:12:54;6.00;;;1.73;;
57395;SDS011;43222;52.912;6.940;2023-08-01T11:15:20;5.97;;;1.40;;
57395;SDS011;43222;52.912;6.940;2023-08-01T11:17:47;5.43;;;1.52;;
57395;SDS011;43222;52.912;6.940;2023-08-01T11:20:13;5.85;;;1.20;;
57395;SDS011;43222;52.912;6.940;2023-08-01T11:22:58;5.80;;;1.38;;
57395;SDS011;43222;52.912;6.940;2023-08-01T11:28:03;6.25;;;1.50;;
57395;SDS011;43222;52.912;6.940;2023-08-01T11:30:30;5.35;;;1.35;;
57395;SDS011;43222;52.912;6.940;2023-08-01T11:32:56;8.27;;;1.45;;
57395;SDS011;43222;52.912;6.940;2023-08-01T11:35:23;6.25;;;1.30;;
57395;SDS011;43222;52.912;6.940;2023-08-01T11:37:49;7.25;;;1.75;;
57395;SDS011;43222;52.912;6.940;2023-08-01T11:40:16;9.65;;;1.83;;
57395;SDS011;43222;52.912;6.940;2023-08-01T11:42:43;8.52;;;1.55;;
57395;SDS011;43222;52.912;6.940;2023-08-01T11:45:09;5.97;;;1.52;;
57395;SDS011;43222;52.912;6.940;2023-08-01T11:47:36;9.00;;;1.80;;
57395;SDS011;43222;52.912;6.940;2023-08-01T11:50:05;10.23;;;1.63;;
57395;SDS011;43222;52.912;6.940;2023-08-01T11:52:31;5.60;;;1.30;;
57395;SDS011;43222;52.912;6.940;2023-08-01T11:54:57;7.32;;;1.30;;
57395;SDS011;43222;52.912;6.940;2023-08-01T11:57:26;6.80;;;1.33;;
57395;SDS011;43222;52.912;6.940;2023-08-01T11:59:53;7.47;;;1.30;;
57395;SDS011;43222;52.912;6.940;2023-08-01T12:02:23;7.68;;;1.45;;
57395;SDS011;43222;52.912;6.940;2023-08-01T12:04:50;5.93;;;1.38;;
57395;SDS011;43222;52.912;6.940;2023-08-01T12:07:16;6.15;;;1.70;;
57395;SDS011;43222;52.912;6.940;2023-08-01T12:09:43;6.95;;;1.40;;
57395;SDS011;43222;52.912;6.940;2023-08-01T12:12:09;7.40;;;1.77;;
57395;SDS011;43222;52.912;6.940;2023-08-01T12:14:39;8.80;;;1.52;;
57395;SDS011;43222;52.912;6.940;2023-08-01T12:17:06;8.27;;;1.52;;
57395;SDS011;43222;52.912;6.940;2023-08-01T12:19:32;9.80;;;1.70;;
57395;SDS011;43222;52.912;6.940;2023-08-01T12:21:59;7.43;;;1.70;;
57395;SDS011;43222;52.912;6.940;2023-08-01T12:24:25;7.40;;;1.70;;
57395;SDS011;43222;52.912;6.940;2023-08-01T12:26:51;7.57;;;1.45;;
57395;SDS011;43222;52.912;6.940;2023-08-01T12:29:17;7.65;;;1.40;;
57395;SDS011;43222;52.912;6.940;2023-08-01T12:31:43;7.75;;;1.70;;
57395;SDS011;43222;52.912;6.940;2023-08-01T12:34:11;4.60;;;1.30;;
57395;SDS011;43222;52.912;6.940;2023-08-01T12:36:37;5.57;;;1.42;;
57395;SDS011;43222;52.912;6.940;2023-08-01T12:39:03;6.35;;;1.50;;
57395;SDS011;43222;52.912;6.940;2023-08-01T12:41:35;8.20;;;1.30;;
57395;SDS011;43222;52.912;6.940;2023-08-01T12:44:01;11.32;;;1.27;;
57395;SDS011;43222;52.912;6.940;2023-08-01T12:46:28;5.95;;;1.33;;
57395;SDS011;43222;52.912;6.940;2023-08-01T12:48:54;7.70;;;1.73;;
57395;SDS011;43222;52.912;6.940;2023-08-01T12:51:20;8.32;;;1.45;;
57395;SDS011;43222;52.912;6.940;2023-08-01T12:53:46;7.93;;;1.67;;
57395;SDS011;43222;52.912;6.940;2023-08-01T12:56:12;10.13;;;1.60;;
57395;SDS011;43222;52.912;6.940;2023-08-01T12:58:38;7.32;;;1.40;;
57395;SDS011;43222;52.912;6.940;2023-08-01T13:01:05;8.55;;;2.10;;
57395;SDS011;43222;52.912;6.940;2023-08-01T13:03:31;6.53;;;1.48;;
57395;SDS011;43222;52.912;6.940;2023-08-01T13:05:58;9.02;;;1.83;;
57395;SDS011;43222;52.912;6.940;2023-08-01T13:08:24;8.35;;;1.50;;
57395;SDS011;43222;52.912;6.940;2023-08-01T13:10:50;5.80;;;1.17;;
57395;SDS011;43222;52.912;6.940;2023-08-01T13:13:16;7.07;;;1.20;;
57395;SDS011;43222;52.912;6.940;2023-08-01T13:15:43;6.28;;;1.30;;
57395;SDS011;43222;52.912;6.940;2023-08-01T13:18:09;5.93;;;1.40;;
57395;SDS011;43222;52.912;6.940;2023-08-01T13:20:35;6.45;;;1.20;;
57395;SDS011;43222;52.912;6.940;2023-08-01T13:23:02;5.63;;;1.30;;
57395;SDS011;43222;52.912;6.940;2023-08-01T13:25:28;6.78;;;1.58;;
57395;SDS011;43222;52.912;6.940;2023-08-01T13:27:54;6.95;;;1.27;;
57395;SDS011;43222;52.912;6.940;2023-08-01T13:30:21;6.93;;;1.35;;
57395;SDS011;43222;52.912;6.940;2023-08-01T13:32:47;6.88;;;1.40;;
57395;SDS011;43222;52.912;6.940;2023-08-01T13:35:13;5.15;;;1.40;;
57395;SDS011;43222;52.912;6.940;2023-08-01T13:37:40;8.95;;;1.60;;
57395;SDS011;43222;52.912;6.940;2023-08-01T13:40:06;7.72;;;2.08;;
57395;SDS011;43222;52.912;6.940;2023-08-01T13:42:33;6.22;;;1.65;;
57395;SDS011;43222;52.912;6.940;2023-08-01T13:44:59;7.07;;;1.63;;
57395;SDS011;43222;52.912;6.940;2023-08-01T13:47:25;7.95;;;1.73;;
57395;SDS011;43222;52.912;6.940;2023-08-01T13:49:51;8.65;;;1.83;;
57395;SDS011;43222;52.912;6.940;2023-08-01T13:52:17;7.85;;;1.38;;
57395;SDS011;43222;52.912;6.940;2023-08-01T13:54:43;9.05;;;1.50;;
57395;SDS011;43222;52.912;6.940;2023-08-01T13:57:09;5.38;;;1.48;;
57395;SDS011;43222;52.912;6.940;2023-08-01T13:59:36;7.63;;;1.65;;
57395;SDS011;43222;52.912;6.940;2023-08-01T14:02:05;11.32;;;1.60;;
57395;SDS011;43222;52.912;6.940;2023-08-01T14:04:31;7.85;;;1.52;;
57395;SDS011;43222;52.912;6.940;2023-08-01T14:06:57;7.18;;;1.50;;
57395;SDS011;43222;52.912;6.940;2023-08-01T14:09:23;6.70;;;1.48;;
57395;SDS011;43222;52.912;6.940;2023-08-01T14:11:49;7.70;;;1.73;;
57395;SDS011;43222;52.912;6.940;2023-08-01T14:14:15;7.53;;;1.40;;
57395;SDS011;43222;52.912;6.940;2023-08-01T14:16:41;9.68;;;1.75;;
57395;SDS011;43222;52.912;6.940;2023-08-01T14:19:07;7.85;;;1.33;;
57395;SDS011;43222;52.912;6.940;2023-08-01T14:21:34;7.97;;;1.75;;
57395;SDS011;43222;52.912;6.940;2023-08-01T14:24:00;5.75;;;1.10;;
57395;SDS011;43222;52.912;6.940;2023-08-01T14:26:26;6.55;;;1.40;;
57395;SDS011;43222;52.912;6.940;2023-08-01T14:28:52;6.97;;;1.30;;
57395;SDS011;43222;52.912;6.940;2023-08-01T14:31:18;7.88;;;1.33;;
57395;SDS011;43222;52.912;6.940;2023-08-01T14:33:44;8.38;;;1.10;;
57395;SDS011;43222;52.912;6.940;2023-08-01T14:36:11;5.40;;;1.08;;
57395;SDS011;43222;52.912;6.940;2023-08-01T14:38:40;5.32;;;1.00;;
57395;SDS011;43222;52.912;6.940;2023-08-01T14:41:07;4.70;;;1.00;;
57395;SDS011;43222;52.912;6.940;2023-08-01T14:43:33;6.15;;;1.20;;
57395;SDS011;43222;52.912;6.940;2023-08-01T14:46:02;5.15;;;0.90;;